sensor_id;sensor_type;location;lat;lon;timestamp;temperature;humidity
14154;DHT22;7157;53.144;7.570;2022-12-10T00:09:33;-0.87;89.84
14154;DHT22;7157;53.144;7.570;2022-12-10T00:19:37;-0.88;90.26
14154;DHT22;7157;53.144;7.570;2022-12-10T00:29:39;-1.00;90.35
14154;DHT22;7157;53.144;7.570;2022-12-10T00:39:44;-1.02;90.33
14154;DHT22;7157;53.144;7.570;2022-12-10T00:49:46;-1.08;90.21
14154;DHT22;7157;53.144;7.570;2022-12-10T00:59:51;-1.14;90.08
14154;DHT22;7157;53.144;7.570;2022-12-10T01:09:53;-1.35;89.95
14154;DHT22;7157;53.144;7.570;2022-12-10T01:19:57;-1.40;90.02
14154;DHT22;7157;53.144;7.570;2022-12-10T01:30:00;-1.53;89.79
14154;DHT22;7157;53.144;7.570;2022-12-10T01:40:06;-1.60;89.98
14154;DHT22;7157;53.144;7.570;2022-12-10T01:50:10;-1.57;90.21
14154;DHT22;7157;53.144;7.570;2022-12-10T02:00:14;-1.47;90.69
14154;DHT22;7157;53.144;7.570;2022-12-10T02:10:23;-1.38;91.12
14154;DHT22;7157;53.144;7.570;2022-12-10T02:20:32;-1.29;91.33
14154;DHT22;7157;53.144;7.570;2022-12-10T02:30:40;-1.31;91.41
14154;DHT22;7157;53.144;7.570;2022-12-10T02:40:48;-1.24;91.79
14154;DHT22;7157;53.144;7.570;2022-12-10T02:50:53;-1.17;92.16
14154;DHT22;7157;53.144;7.570;2022-12-10T03:01:01;-1.20;92.73
14154;DHT22;7157;53.144;7.570;2022-12-10T03:11:11;-1.34;92.38
14154;DHT22;7157;53.144;7.570;2022-12-10T03:21:15;-1.45;92.18
14154;DHT22;7157;53.144;7.570;2022-12-10T03:31:20;-1.42;92.27
14154;DHT22;7157;53.144;7.570;2022-12-10T03:41:23;-1.31;92.79
14154;DHT22;7157;53.144;7.570;2022-12-10T03:51:27;-1.28;93.27
14154;DHT22;7157;53.144;7.570;2022-12-10T04:01:30;-1.09;93.64
14154;DHT22;7157;53.144;7.570;2022-12-10T04:11:34;-1.15;93.90
14154;DHT22;7157;53.144;7.570;2022-12-10T04:21:39;-1.09;93.68
14154;DHT22;7157;53.144;7.570;2022-12-10T04:32:01;-1.04;93.83
14154;DHT22;7157;53.144;7.570;2022-12-10T04:42:05;-1.14;93.98
14154;DHT22;7157;53.144;7.570;2022-12-10T04:52:11;-1.25;93.79
14154;DHT22;7157;53.144;7.570;2022-12-10T05:02:13;-1.35;94.03
14154;DHT22;7157;53.144;7.570;2022-12-10T05:12:17;-1.45;93.76
14154;DHT22;7157;53.144;7.570;2022-12-10T05:22:20;-1.49;93.84
14154;DHT22;7157;53.144;7.570;2022-12-10T05:32:42;-1.64;93.32
14154;DHT22;7157;53.144;7.570;2022-12-10T05:42:45;-1.76;93.20
14154;DHT22;7157;53.144;7.570;2022-12-10T05:52:50;-1.80;93.08
14154;DHT22;7157;53.144;7.570;2022-12-10T06:02:52;-1.67;93.02
14154;DHT22;7157;53.144;7.570;2022-12-10T06:12:57;-1.43;93.09
14154;DHT22;7157;53.144;7.570;2022-12-10T06:22:59;-1.19;93.24
14154;DHT22;7157;53.144;7.570;2022-12-10T06:33:04;-1.03;92.97
14154;DHT22;7157;53.144;7.570;2022-12-10T06:43:06;-0.80;92.88
14154;DHT22;7157;53.144;7.570;2022-12-10T06:53:10;-0.70;92.56
14154;DHT22;7157;53.144;7.570;2022-12-10T07:03:13;-0.53;92.42
14154;DHT22;7157;53.144;7.570;2022-12-10T07:13:17;-0.43;91.74
14154;DHT22;7157;53.144;7.570;2022-12-10T07:23:20;-0.38;92.05
14154;DHT22;7157;53.144;7.570;2022-12-10T07:33:25;-0.35;91.98
14154;DHT22;7157;53.144;7.570;2022-12-10T07:43:27;-0.25;92.06
14154;DHT22;7157;53.144;7.570;2022-12-10T07:53:32;-0.17;92.08
14154;DHT22;7157;53.144;7.570;2022-12-10T08:03:34;0.01;91.90
14154;DHT22;7157;53.144;7.570;2022-12-10T08:13:39;0.14;91.43
14154;DHT22;7157;53.144;7.570;2022-12-10T08:23:42;0.20;90.97
14154;DHT22;7157;53.144;7.570;2022-12-10T08:33:47;0.31;90.08
14154;DHT22;7157;53.144;7.570;2022-12-10T08:43:52;0.25;90.17
14154;DHT22;7157;53.144;7.570;2022-12-10T08:53:56;0.36;89.79
14154;DHT22;7157;53.144;7.570;2022-12-10T09:03:59;0.64;90.94
14154;DHT22;7157;53.144;7.570;2022-12-10T09:14:04;0.98;88.67
14154;DHT22;7157;53.144;7.570;2022-12-10T09:24:08;0.92;88.76
14154;DHT22;7157;53.144;7.570;2022-12-10T09:34:12;1.02;89.31
14154;DHT22;7157;53.144;7.570;2022-12-10T09:44:22;1.19;87.96
14154;DHT22;7157;53.144;7.570;2022-12-10T09:54:33;1.28;87.51
14154;DHT22;7157;53.144;7.570;2022-12-10T10:04:36;1.45;85.90
14154;DHT22;7157;53.144;7.570;2022-12-10T10:14:41;1.64;85.61
14154;DHT22;7157;53.144;7.570;2022-12-10T10:24:45;1.73;85.41
14154;DHT22;7157;53.144;7.570;2022-12-10T10:34:54;2.19;83.80
14154;DHT22;7157;53.144;7.570;2022-12-10T10:44:58;2.16;83.07
14154;DHT22;7157;53.144;7.570;2022-12-10T10:55:02;2.57;80.81
14154;DHT22;7157;53.144;7.570;2022-12-10T11:05:07;2.60;81.79
14154;DHT22;7157;53.144;7.570;2022-12-10T11:15:32;2.61;82.01
14154;DHT22;7157;53.144;7.570;2022-12-10T11:25:43;2.87;80.26
14154;DHT22;7157;53.144;7.570;2022-12-10T11:36:00;2.70;79.52
14154;DHT22;7157;53.144;7.570;2022-12-10T11:46:20;3.08;79.11
14154;DHT22;7157;53.144;7.570;2022-12-10T11:56:31;3.41;77.29
14154;DHT22;7157;53.144;7.570;2022-12-10T12:06:49;3.32;78.30
14154;DHT22;7157;53.144;7.570;2022-12-10T12:17:01;3.58;77.92
14154;DHT22;7157;53.144;7.570;2022-12-10T12:27:13;2.75;79.34
14154;DHT22;7157;53.144;7.570;2022-12-10T12:37:22;2.87;79.22
14154;DHT22;7157;53.144;7.570;2022-12-10T12:47:36;2.75;79.72
14154;DHT22;7157;53.144;7.570;2022-12-10T12:57:46;7.67;66.13
14154;DHT22;7157;53.144;7.570;2022-12-10T13:08:24;4.09;73.34
14154;DHT22;7157;53.144;7.570;2022-12-10T13:18:38;2.99;77.86
14154;DHT22;7157;53.144;7.570;2022-12-10T13:28:49;2.68;79.80
14154;DHT22;7157;53.144;7.570;2022-12-10T13:39:12;3.36;78.95
14154;DHT22;7157;53.144;7.570;2022-12-10T13:49:24;3.00;79.24
14154;DHT22;7157;53.144;7.570;2022-12-10T13:59:37;2.52;80.88
14154;DHT22;7157;53.144;7.570;2022-12-10T14:09:47;2.31;82.33
14154;DHT22;7157;53.144;7.570;2022-12-10T14:19:54;2.15;83.42
14154;DHT22;7157;53.144;7.570;2022-12-10T14:30:02;2.21;83.86
14154;DHT22;7157;53.144;7.570;2022-12-10T14:40:08;2.26;83.94
14154;DHT22;7157;53.144;7.570;2022-12-10T14:50:16;2.19;84.23
14154;DHT22;7157;53.144;7.570;2022-12-10T15:00:22;2.14;84.66
14154;DHT22;7157;53.144;7.570;2022-12-10T15:10:28;2.15;84.51
14154;DHT22;7157;53.144;7.570;2022-12-10T15:20:43;2.07;85.01
14154;DHT22;7157;53.144;7.570;2022-12-10T15:30:50;2.12;84.86
14154;DHT22;7157;53.144;7.570;2022-12-10T15:41:21;2.07;85.14
14154;DHT22;7157;53.144;7.570;2022-12-10T15:51:24;2.01;85.74
14154;DHT22;7157;53.144;7.570;2022-12-10T16:01:29;2.19;84.39
14154;DHT22;7157;53.144;7.570;2022-12-10T16:11:32;1.97;85.45
14154;DHT22;7157;53.144;7.570;2022-12-10T16:21:37;2.02;85.21
14154;DHT22;7157;53.144;7.570;2022-12-10T16:31:39;2.03;85.54
14154;DHT22;7157;53.144;7.570;2022-12-10T16:41:44;2.13;85.33
14154;DHT22;7157;53.144;7.570;2022-12-10T16:51:46;2.15;85.13
14154;DHT22;7157;53.144;7.570;2022-12-10T17:01:50;2.14;85.61
14154;DHT22;7157;53.144;7.570;2022-12-10T17:11:53;2.03;85.55
14154;DHT22;7157;53.144;7.570;2022-12-10T17:21:58;2.07;86.24
14154;DHT22;7157;53.144;7.570;2022-12-10T17:32:01;2.00;86.52
14154;DHT22;7157;53.144;7.570;2022-12-10T17:42:06;2.01;87.10
14154;DHT22;7157;53.144;7.570;2022-12-10T17:52:09;1.95;87.54
14154;DHT22;7157;53.144;7.570;2022-12-10T18:02:13;1.93;88.15
14154;DHT22;7157;53.144;7.570;2022-12-10T18:12:16;1.83;88.81
14154;DHT22;7157;53.144;7.570;2022-12-10T18:22:22;1.76;89.63
14154;DHT22;7157;53.144;7.570;2022-12-10T18:32:25;1.78;89.99
14154;DHT22;7157;53.144;7.570;2022-12-10T18:42:29;1.76;90.53
14154;DHT22;7157;53.144;7.570;2022-12-10T18:52:32;1.65;91.28
14154;DHT22;7157;53.144;7.570;2022-12-10T19:02:36;1.69;91.44
14154;DHT22;7157;53.144;7.570;2022-12-10T19:12:39;1.57;91.09
14154;DHT22;7157;53.144;7.570;2022-12-10T19:22:43;1.40;91.36
14154;DHT22;7157;53.144;7.570;2022-12-10T19:32:46;1.51;91.08
14154;DHT22;7157;53.144;7.570;2022-12-10T19:42:51;1.17;91.71
14154;DHT22;7157;53.144;7.570;2022-12-10T19:52:54;1.35;91.31
14154;DHT22;7157;53.144;7.570;2022-12-10T20:02:58;1.45;90.38
14154;DHT22;7157;53.144;7.570;2022-12-10T20:13:00;1.32;90.87
14154;DHT22;7157;53.144;7.570;2022-12-10T20:23:05;1.26;91.11
14154;DHT22;7157;53.144;7.570;2022-12-10T20:33:07;1.22;91.31
14154;DHT22;7157;53.144;7.570;2022-12-10T20:43:32;1.24;91.38
14154;DHT22;7157;53.144;7.570;2022-12-10T20:53:34;1.14;92.08
14154;DHT22;7157;53.144;7.570;2022-12-10T21:03:41;1.07;92.86
14154;DHT22;7157;53.144;7.570;2022-12-10T21:13:44;0.90;93.37
14154;DHT22;7157;53.144;7.570;2022-12-10T21:23:48;0.99;93.33
14154;DHT22;7157;53.144;7.570;2022-12-10T21:33:51;0.96;93.06
14154;DHT22;7157;53.144;7.570;2022-12-10T21:43:56;0.91;93.30
14154;DHT22;7157;53.144;7.570;2022-12-10T21:53:59;1.03;93.24
14154;DHT22;7157;53.144;7.570;2022-12-10T22:04:03;0.71;93.92
14154;DHT22;7157;53.144;7.570;2022-12-10T22:14:06;0.71;94.65
14154;DHT22;7157;53.144;7.570;2022-12-10T22:24:10;0.71;94.69
14154;DHT22;7157;53.144;7.570;2022-12-10T22:34:13;0.80;94.09
14154;DHT22;7157;53.144;7.570;2022-12-10T22:44:17;0.75;94.20
14154;DHT22;7157;53.144;7.570;2022-12-10T22:54:20;0.62;94.58
14154;DHT22;7157;53.144;7.570;2022-12-10T23:04:25;0.54;94.84
14154;DHT22;7157;53.144;7.570;2022-12-10T23:14:28;0.60;94.34
14154;DHT22;7157;53.144;7.570;2022-12-10T23:24:32;0.66;94.12
14154;DHT22;7157;53.144;7.570;2022-12-10T23:34:35;0.53;94.45
14154;DHT22;7157;53.144;7.570;2022-12-10T23:44:39;0.54;94.30
14154;DHT22;7157;53.144;7.570;2022-12-10T23:54:42;0.58;94.55
